Portada
METAR-TAF:

METAR-TAF

Aeropuertos :

Aeropuerto de Albacete

Albacete, España

latitud: 38-57N, longitud: 001-51W, altitud: 702 m

Observación

El informe se hizo hace 19 minutos, a las 07:00 UTC
Viento 9 kt del norte-noroeste
Temperatura 13°C
Humedad 77%
Presión 1018 hPa
Visibilidad 10 km o más
sin nubes por debajo de 1500 m y sin presencia de cumulonimbus.

METAR: LEAB 250700Z 34009KT CAVOK 13/09 Q1018 NOSIG

Hora: 09:19 (07:19 UTC)

Pronóstico

El informe se hizo hace 2 horas y 19 minutos, a las 05:00 UTC
Pronóstico válido del 25 a las 06 UTC al 25 a las 15 UTC
Viento 7 kt del norte-noroeste
Visibilidad 10 km o más
Escasas nubes a una altura de 4500 ft
Evolucionando progresivamente
del 25 a las 08 UTC al 25 a las 10 UTC
Viento 10 kt del noreste

TAF: LEAB 250500Z 2506/2515 33007KT 9999 FEW045 BECMG 2508/2510 04010KT

Observaciones y pronósticos meteorológicos de más de 4000 aeropuertos (mensajes METAR y TAF).

Los puntos amarillos y rojos representan las estaciones disponibles.

Ponga el ratón en el punto deseado para ver el nombre de la estación.

Haga clic para ver las observaciones y los pronósticos meteorológicos.

Para cambiar el mapa : haga clic en los botones verdes con una cruz de color negro para hacer un zoom, en el botón verde con un guión para alejar o en las flechas verdes para mapas adyacentes.


METAR-TAF: